Latest Weather Observations for Outer Harbor (Black Pole)

IDS60901

Issued at 7:01 pm CDT Tuesday 22 October 2019 (issued every 10 minutes, with the page automatically refreshed every 10 minutes)

About weather observations | Map of Adelaide area stations | Latest observations for Adelaide area | Other Formats
Station Details ID: 023052 Name: BLACK POLE Lat: -34.73 Lon: 138.47 Height: 6.27 m
Data from the previous 72 hours. | See also: Recent months for locations in South Australia
Date/Time
CDT
Temp
°C
App
Temp
°C
Dew
Point
°C
Rel
Hum
%
Delta-T
°C
Wind Press
QNH
hPa
Press
MSL
hPa
Rain since
9am
mm
Dir  Spd
km/h
Gust
km/h
Spd
kts
Gust
kts
22/07:00pm - - - - - S 20 22 11 12 - - -
22/06:30pm - - - - - S 20 24 11 13 - - -
22/06:00pm - - - - - S 20 22 11 12 - - -
22/05:30pm - - - - - S 20 22 11 12 - - -
22/05:00pm - - - - - S 20 22 11 12 - - -
22/04:30pm - - - - - S 19 20 10 11 - - -
22/04:00pm - - - - - S 19 19 10 10 - - -
22/03:30pm - - - - - S 17 17 9 9 - - -
22/03:00pm - - - - - SSW 19 19 10 10 - - -
22/02:30pm - - - - - S 19 20 10 11 - - -
22/02:00pm - - - - - SSW 17 19 9 10 - - -
22/01:30pm - - - - - SSW 15 19 8 10 - - -
22/01:00pm - - - - - SSW 17 20 9 11 - - -
22/12:30pm - - - - - SW 13 15 7 8 - - -
22/12:00pm - - - - - SSW 13 15 7 8 - - -
22/11:30am - - - - - SW 15 17 8 9 - - -
22/11:00am - - - - - SW 13 15 7 8 - - -
22/10:30am - - - - - SSW 7 9 4 5 - - -
22/10:00am - - - - - SE 6 7 3 4 - - -
22/09:30am - - - - - S 2 4 1 2 - - -
22/09:00am - - - - - NW 4 7 2 4 - - -
22/08:30am - - - - - NNW 4 7 2 4 - - -
22/08:00am - - - - - N 6 7 3 4 - - -
22/07:30am - - - - - SE 2 6 1 3 - - -
22/07:00am - - - - - E 4 6 2 3 - - -
22/06:30am - - - - - ENE 9 11 5 6 - - -
22/06:00am - - - - - NE 11 13 6 7 - - -
22/05:30am - - - - - NNE 11 15 6 8 - - -
22/05:00am - - - - - N 9 13 5 7 - - -
22/04:30am - - - - - N 9 11 5 6 - - -
22/04:00am - - - - - NNE 9 13 5 7 - - -
22/03:30am - - - - - NE 9 11 5 6 - - -
22/03:00am - - - - - N 9 11 5 6 - - -
22/02:30am - - - - - NNE 11 13 6 7 - - -
22/02:00am - - - - - NNE 9 11 5 6 - - -
22/01:30am - - - - - N 7 9 4 5 - - -
22/01:00am - - - - - N 7 9 4 5 - - -
22/12:30am - - - - - NNE 11 13 6 7 - - -
22/12:00am - - - - - ENE 9 11 5 6 - - -
 
Date/Time
CDT
Temp
°C
App
Temp
°C
Dew
Point
°C
Rel
Hum
%
Delta-T
°C
Wind Press
QNH
hPa
Press
MSL
hPa
Rain since
9am
mm
Dir  Spd
km/h
Gust
km/h
Spd
kts
Gust
kts
21/11:30pm - - - - - ESE 7 7 4 4 - - -
21/11:00pm - - - - - ESE 6 7 3 4 - - -
21/10:30pm - - - - - E 6 7 3 4 - - -
21/10:00pm - - - - - E 7 7 4 4 - - -
21/09:30pm - - - - - SE 11 13 6 7 - - -
21/09:00pm - - - - - S 13 15 7 8 - - -
21/08:30pm - - - - - S 19 20 10 11 - - -
21/08:00pm - - - - - S 17 19 9 10 - - -
21/07:30pm - - - - - S 19 20 10 11 - - -
21/07:00pm - - - - - S 19 22 10 12 - - -
21/06:30pm - - - - - S 19 20 10 11 - - -
21/06:00pm - - - - - SSW 20 22 11 12 - - -
21/05:30pm - - - - - S 20 22 11 12 - - -
21/05:00pm - - - - - SSW 17 20 9 11 - - -
21/04:30pm - - - - - S 19 22 10 12 - - -
21/04:00pm - - - - - S 20 22 11 12 - - -
21/03:30pm - - - - - S 20 22 11 12 - - -
21/03:00pm - - - - - SSW 20 22 11 12 - - -
21/02:30pm - - - - - SSW 17 19 9 10 - - -
21/02:00pm - - - - - SSW 19 20 10 11 - - -
21/01:30pm - - - - - SSW 19 20 10 11 - - -
21/01:00pm - - - - - SSW 19 20 10 11 - - -
21/12:30pm - - - - - SSW 13 15 7 8 - - -
21/12:00pm - - - - - SW 13 13 7 7 - - -
21/11:30am - - - - - SW 13 15 7 8 - - -
21/11:00am - - - - - WSW 6 9 3 5 - - -
21/10:30am - - - - - NNW 4 11 2 6 - - -
21/10:00am - - - - - NE 15 17 8 9 - - -
21/09:30am - - - - - NE 19 24 10 13 - - -
21/09:00am - - - - - NE 20 26 11 14 - - -
21/08:30am - - - - - NE 15 20 8 11 - - -
21/08:00am - - - - - NE 11 15 6 8 - - -
21/07:30am - - - - - NE 15 19 8 10 - - -
21/07:00am - - - - - NE 19 20 10 11 - - -
21/06:30am - - - - - NNE 19 20 10 11 - - -
21/06:00am - - - - - NNE 19 20 10 11 - - -
21/05:30am - - - - - NNE 19 20 10 11 - - -
21/05:00am - - - - - NNW 9 13 5 7 - - -
21/04:30am - - - - - NW 7 9 4 5 - - -
21/04:00am - - - - - NNW 7 9 4 5 - - -
21/03:30am - - - - - NNE 7 9 4 5 - - -
21/03:00am - - - - - NE 9 13 5 7 - - -
21/02:30am - - - - - ENE 15 19 8 10 - - -
21/02:00am - - - - - ENE 15 19 8 10 - - -
21/01:30am - - - - - E 20 24 11 13 - - -
21/01:00am - - - - - ENE 19 22 10 12 - - -
21/12:30am - - - - - ENE 15 19 8 10 - - -
21/12:00am - - - - - ENE 11 15 6 8 - - -
 
Date/Time
CDT
Temp
°C
App
Temp
°C
Dew
Point
°C
Rel
Hum
%
Delta-T
°C
Wind Press
QNH
hPa
Press
MSL
hPa
Rain since
9am
mm
Dir  Spd
km/h
Gust
km/h
Spd
kts
Gust
kts
20/11:30pm - - - - - E 11 13 6 7 - - -
20/11:00pm - - - - - ESE 17 20 9 11 - - -
20/10:30pm - - - - - ESE 19 22 10 12 - - -
20/10:00pm - - - - - ESE 17 20 9 11 - - -
20/09:30pm - - - - - E 17 20 9 11 - - -
20/09:00pm - - - - - SSE 20 24 11 13 - - -
20/08:30pm - - - - - S 32 37 17 20 - - -
20/08:00pm - - - - - SSW 32 37 17 20 - - -
20/07:30pm - - - - - SSW 30 33 16 18 - - -
20/07:00pm - - - - - SSW 28 33 15 18 - - -
20/06:30pm - - - - - SSW 26 28 14 15 - - -
20/06:00pm - - - - - SSW 24 28 13 15 - - -
20/05:30pm - - - - - SSW 22 26 12 14 - - -
20/05:00pm - - - - - SSW 22 26 12 14 - - -
20/04:30pm - - - - - SSW 22 26 12 14 - - -
20/04:00pm - - - - - SSW 20 22 11 12 - - -
20/03:30pm - - - - - SSW 20 24 11 13 - - -
20/03:00pm - - - - - SW 20 22 11 12 - - -
20/02:30pm - - - - - SW 19 24 10 13 - - -
20/02:00pm - - - - - SW 20 26 11 14 - - -
20/01:30pm - - - - - SW 19 20 10 11 - - -
20/01:00pm - - - - - SW 17 19 9 10 - - -
20/12:30pm - - - - - SW 15 19 8 10 - - -
20/12:00pm - - - - - SW 11 19 6 10 - - -
20/11:30am - - - - - WSW 9 13 5 7 - - -
20/11:00am - - - - - S 6 11 3 6 - - -
20/10:30am - - - - - CALM 0 6 0 3 - - -
20/10:00am - - - - - ESE 2 6 1 3 - - -
20/09:30am - - - - - ESE 7 11 4 6 - - -
20/09:00am - - - - - ENE 7 11 4 6 - - -
20/08:30am - - - - - NE 9 13 5 7 - - -
20/08:00am - - - - - NNE 9 13 5 7 - - -
20/07:30am - - - - - NE 15 17 8 9 - - -
20/07:00am - - - - - NE 11 13 6 7 - - -
20/06:30am - - - - - NE 9 11 5 6 - - -
20/06:00am - - - - - NE 7 9 4 5 - - -
20/05:30am - - - - - NE 7 9 4 5 - - -
20/05:00am - - - - - NNE 7 11 4 6 - - -
20/04:30am - - - - - E 6 9 3 5 - - -
20/04:00am - - - - - E 11 13 6 7 - - -
20/03:30am - - - - - ESE 7 9 4 5 - - -
20/03:00am - - - - - ESE 7 9 4 5 - - -
20/02:30am - - - - - SE 7 11 4 6 - - -
20/02:00am - - - - - SE 11 15 6 8 - - -
20/01:30am - - - - - SE 11 17 6 9 - - -
20/01:00am - - - - - SE 11 13 6 7 - - -
20/12:30am - - - - - SSE 11 15 6 8 - - -
20/12:00am - - - - - SE 13 17 7 9 - - -
 
Date/Time
CDT
Temp
°C
App
Temp
°C
Dew
Point
°C
Rel
Hum
%
Delta-T
°C
Wind Press
QNH
hPa
Press
MSL
hPa
Rain since
9am
mm
Dir  Spd
km/h
Gust
km/h
Spd
kts
Gust
kts
19/11:30pm - - - - - SE 17 19 9 10 - - -
19/11:00pm - - - - - SE 17 20 9 11 - - -
19/10:30pm - - - - - SSE 24 32 13 17 - - -
19/10:00pm - - - - - S 28 35 15 19 - - -
19/09:30pm - - - - - SSW 22 32 12 17 - - -
19/09:00pm - - - - - SSW 24 30 13 16 - - -
19/08:30pm - - - - - S 30 37 16 20 - - -
19/08:00pm - - - - - SSW 35 44 19 24 - - -
19/07:30pm - - - - - SW 35 43 19 23 - - -

Latest Capital City Observations: Canberra | Sydney | Melbourne | Brisbane | Adelaide | Perth | Hobart | Darwin

Other formats

Comma delimited format used in spreadsheet applications
http://www.bom.gov.au/fwo/IDS60901/IDS60901.95675.axf

JavaScript Object Notation format (JSON) in row-major order
http://www.bom.gov.au/fwo/IDS60901/IDS60901.95675.json

Data quality

Most of these data are generated automatically and are frequently updated. Quality checks on data are not normally performed. It is possible for incorrect values to appear. Refer to information at About Latest Weather Observations and please check the disclaimer before using these data.